Stations météo

réclame
Mon MeteoGroup
Salamanca/Matacan, Espagne (8202): Température de l'air & dewpoint: 11.01.2018 08:00:00 - 17.01.2018 08:00:00 (CET)Salamanca/Matacan, Espagne (8202): Vitesse du vent: 11.01.2018 08:00:00 - 17.01.2018 08:00:00 (CET)Salamanca/Matacan, Espagne (8202): Direction du vent: 11.01.2018 08:00:00 - 17.01.2018 08:00:00 (CET)Salamanca/Matacan, Espagne (8202): visibility: 11.01.2018 08:00:00 - 17.01.2018 08:00:00 (CET)
Date & Time tt [°C] td [°C] ff [km/h] ff [knt] dd vv [km]
17.01.2018 08:00:00 4,0 3,0 9 5 W 10
17.01.2018 07:00:00 5,5 4,8 8 4 WSW 10
17.01.2018 06:00:00 5,9 4,9 13 7 W -
17.01.2018 05:00:00 7,4 5,9 11 6 W -
17.01.2018 04:00:00 8,1 6,4 13 7 WSW -
17.01.2018 03:00:00 7,9 6,2 18 10 WSW -
17.01.2018 02:00:00 8,2 6,5 18 10 WSW -
17.01.2018 01:00:00 7,5 6,1 16 9 WSW -
17.01.2018 00:00:00 7,7 6,5 4 2 W -
16.01.2018 23:00:00 8,5 7,0 15 8 WSW -
16.01.2018 22:00:00 8,3 6,8 13 7 W -
16.01.2018 21:00:00 7,5 6,2 5 3 W 10
16.01.2018 20:00:00 8,0 6,5 21 11 WSW 10
16.01.2018 19:00:00 9,1 6,5 16 9 W 10
16.01.2018 18:00:00 11,0 8,0 15 8 W 10
16.01.2018 17:00:00 11,4 8,6 16 9 W 10
16.01.2018 16:00:00 11,3 8,9 22 12 W 10
16.01.2018 15:00:00 11,2 8,6 24 13 W 10
16.01.2018 14:00:00 10,7 8,2 22 12 W 10
16.01.2018 13:00:00 10,2 8,0 22 12 W 10
16.01.2018 12:00:00 10,0 7,8 21 11 W 10
16.01.2018 11:00:00 9,1 7,4 18 10 WSW 10
16.01.2018 10:00:00 8,1 6,9 18 10 SW 10
16.01.2018 09:00:00 7,2 6,3 18 10 SW 5
16.01.2018 08:00:00 6,7 6,0 15 8 W 6
16.01.2018 07:00:00 6,5 5,5 5 3 W 10
16.01.2018 06:00:00 6,3 4,9 18 10 W -
16.01.2018 05:00:00 6,2 3,2 21 11 WSW -
16.01.2018 04:00:00 6,5 3,3 24 13 WSW -
16.01.2018 03:00:00 5,2 1,5 11 6 WSW -
16.01.2018 02:00:00 5,0 1,4 11 6 WSW -
16.01.2018 01:00:00 5,2 2,0 16 9 WSW -
16.01.2018 00:00:00 5,0 2,5 16 9 WSW -
15.01.2018 23:00:00 5,1 1,8 11 6 W -
15.01.2018 22:00:00 5,2 0,9 16 9 WSW -
15.01.2018 21:00:00 4,9 1,2 4 2 - 10
15.01.2018 20:00:00 5,6 1,5 13 7 WSW 10
15.01.2018 19:00:00 6,3 2,3 13 7 WSW 10
15.01.2018 18:00:00 6,9 1,2 13 7 W 10
15.01.2018 17:00:00 8,0 -0,5 18 10 W 10
15.01.2018 16:00:00 8,9 0,5 16 9 W 10
15.01.2018 15:00:00 8,2 1,7 8 4 W 10
15.01.2018 14:00:00 6,9 1,7 2 1 - 10
15.01.2018 13:00:00 5,9 0,5 4 2 - 10
15.01.2018 12:00:00 3,9 0,4 2 1 - 10
15.01.2018 11:00:00 1,2 -0,4 2 1 - 9
15.01.2018 10:00:00 -1,4 -2,2 0 0 N 7
15.01.2018 09:00:00 -2,5 -3,1 0 0 N 9
15.01.2018 08:00:00 -3,3 -3,8 0 0 N 5
15.01.2018 07:00:00 -3,2 -3,7 0 0 N 5
15.01.2018 06:00:00 -2,8 -3,3 0 0 N -
15.01.2018 05:00:00 -2,6 -3,3 2 1 S -
15.01.2018 04:00:00 -2,6 -3,3 2 1 SSW -
15.01.2018 03:00:00 -1,8 -2,4 0 0 N -
15.01.2018 02:00:00 -1,5 -2,1 4 2 N -
15.01.2018 01:00:00 -1,7 -2,5 - - - -
15.01.2018 00:00:00 -0,8 -1,7 2 1 NE -
14.01.2018 23:00:00 -0,2 -1,3 2 1 ESE -
14.01.2018 22:00:00 0,1 -1,3 4 2 E -
14.01.2018 21:00:00 0,7 -0,9 5 3 E -
14.01.2018 20:00:00 2,2 -0,1 4 2 E -
14.01.2018 19:00:00 3,9 0,6 5 3 ENE 10
14.01.2018 18:00:00 4,3 0,1 8 4 NNE 10
14.01.2018 17:00:00 4,5 0,3 2 1 - 10
14.01.2018 16:00:00 4,7 0,6 2 1 - 10
14.01.2018 15:00:00 4,5 1,0 5 3 NNW 10
14.01.2018 14:00:00 4,2 0,5 9 5 NW 10
14.01.2018 13:00:00 3,8 0,6 13 7 NW 10
14.01.2018 12:00:00 3,3 0,5 5 3 WNW 10
14.01.2018 11:00:00 2,6 0,7 9 5 NW 10
14.01.2018 10:00:00 2,1 1,1 0 0 N 10
14.01.2018 09:00:00 1,7 0,7 9 5 WNW 10
14.01.2018 08:00:00 1,9 0,9 9 5 W 10
14.01.2018 07:00:00 2,2 1,0 11 6 W 10
14.01.2018 06:00:00 2,3 1,1 11 6 W -
14.01.2018 05:00:00 2,4 1,4 8 4 WSW -
14.01.2018 04:00:00 2,4 1,5 5 3 WSW -
14.01.2018 03:00:00 2,4 1,3 4 2 W -
14.01.2018 02:00:00 1,9 0,9 13 7 SW -
14.01.2018 01:00:00 2,3 1,3 11 6 W -
14.01.2018 00:00:00 2,0 1,0 13 7 WSW -
13.01.2018 23:00:00 2,7 1,8 13 7 WSW -
13.01.2018 22:00:00 2,2 1,3 13 7 W -
13.01.2018 21:00:00 2,2 0,9 9 5 W -
13.01.2018 20:00:00 2,3 1,0 15 8 SW -
13.01.2018 19:00:00 3,9 2,1 13 7 SW 10
13.01.2018 18:00:00 4,6 2,1 16 9 W 10
13.01.2018 17:00:00 5,8 2,8 22 12 W 10
13.01.2018 16:00:00 5,8 2,5 24 13 W 10
13.01.2018 15:00:00 4,5 1,9 18 10 SW 10
13.01.2018 14:00:00 3,4 1,9 15 8 W 10
13.01.2018 13:00:00 3,1 1,6 24 13 W 10
13.01.2018 12:00:00 3,5 2,5 4 2 - 10
13.01.2018 11:00:00 2,8 1,5 0 0 N 6
13.01.2018 10:00:00 2,7 0,3 8 4 W 8
13.01.2018 09:00:00 2,2 0,3 15 8 SSE 9
13.01.2018 08:00:00 1,8 -0,8 5 3 SE 10
13.01.2018 07:00:00 0,3 -0,7 11 6 SSE 10
13.01.2018 06:00:00 -0,4 -1,5 4 2 SSE -
13.01.2018 05:00:00 0,6 -1,0 2 1 SW -
13.01.2018 04:00:00 1,6 -0,7 13 7 S -
13.01.2018 03:00:00 1,6 -0,8 13 7 S -
13.01.2018 02:00:00 1,5 -1,2 9 5 S -
13.01.2018 01:00:00 1,9 -1,0 9 5 SSW -
13.01.2018 00:00:00 2,4 -0,9 8 4 S -
12.01.2018 23:00:00 2,3 -0,6 2 1 S -
12.01.2018 22:00:00 2,2 -0,6 8 4 S -
12.01.2018 21:00:00 2,5 -0,4 13 7 SSW -
12.01.2018 20:00:00 3,8 0,8 8 4 SW -
12.01.2018 19:00:00 5,2 0,6 9 5 S 10
12.01.2018 18:00:00 6,3 2,0 4 2 - 10
12.01.2018 17:00:00 7,1 0,8 2 1 - 10
12.01.2018 16:00:00 7,5 0,9 0 0 N 10
12.01.2018 15:00:00 7,9 1,7 0 0 N 10
12.01.2018 14:00:00 6,7 1,0 0 0 N 10
12.01.2018 13:00:00 3,5 0,8 0 0 N 10
12.01.2018 12:00:00 1,8 -0,2 4 2 - 10
12.01.2018 11:00:00 0,5 -0,6 0 0 N 10
12.01.2018 10:00:00 -1,3 -1,9 0 0 N 10
12.01.2018 09:00:00 -3,4 -3,9 0 0 N 2,0
12.01.2018 08:00:00 -3,5 -4,0 2 1 - 7
12.01.2018 07:00:00 -3,1 -3,8 0 0 N 10
12.01.2018 06:00:00 -2,5 -3,2 0 0 N -
12.01.2018 05:00:00 -1,9 -2,8 8 4 SW -
12.01.2018 04:00:00 -1,5 -2,3 8 4 S -
12.01.2018 03:00:00 -0,4 -1,3 4 2 SSW -
12.01.2018 02:00:00 -0,3 -1,1 11 6 SSW -
12.01.2018 01:00:00 -0,9 -1,9 5 3 W -
12.01.2018 00:00:00 0,3 -1,3 8 4 W -
11.01.2018 23:00:00 1,0 -0,9 16 9 W -
11.01.2018 22:00:00 0,6 -1,0 15 8 WSW -
11.01.2018 21:00:00 0,8 -1,3 8 4 SW -
11.01.2018 20:00:00 2,1 -0,8 13 7 W 10
11.01.2018 19:00:00 2,8 -0,3 15 8 W 10
11.01.2018 18:00:00 4,9 0,1 21 11 W 10
11.01.2018 17:00:00 6,0 0,1 21 11 WNW 10
11.01.2018 16:00:00 5,9 0,6 24 13 WNW 10
11.01.2018 15:00:00 6,1 0,5 22 12 WNW 10
11.01.2018 14:00:00 6,5 1,9 37 20 WNW 10
11.01.2018 13:00:00 5,4 0,7 35 19 WNW 20
11.01.2018 12:00:00 5,0 0,8 34 18 WNW 10
11.01.2018 11:00:00 4,0 0,9 35 19 WNW 10
11.01.2018 10:00:00 3,1 0,5 28 15 WNW 10
11.01.2018 09:00:00 2,4 0,8 22 12 WNW 10
11.01.2018 08:00:00 3,0 1,2 26 14 W 10

tt = Température de l'air
td = dewpoint
ff = Vitesse du vent
dd = Direction du vent
vv = visibility

stations d'obs. à proximité